This is the latest recevied weather packets stored in our database for station/object KQ4PPF. If no packets are shown the sender has not sent any weather packets the latest 10 day(s).
| Time | Temp. | Humidity | Pressure | Rain* | Wind** | Luminosity | Snow |
|---|---|---|---|---|---|---|---|
| 1777679660 | 17.22° C | 65% | 1012.4 hPa | 0 mm | - | 8 W/m² | - |
| 1777679355 | 17.22° C | 62% | 1012 hPa | 0 mm | - | 9 W/m² | - |
| 1777679052 | 17.78° C | 62% | 1011.8 hPa | 0 mm | - | 12 W/m² | - |
| 1777678751 | 17.78° C | 62% | 1012.2 hPa | 0 mm | - | 13 W/m² | - |
| 1777678448 | 17.78° C | 60% | 1012.4 hPa | 0 mm | - | 16 W/m² | - |
| 1777678143 | 17.78° C | 59% | 1012.2 hPa | 0 mm | - | 19 W/m² | - |
| 1777677841 | 18.33° C | 59% | 1012.2 hPa | 0 mm | - | 23 W/m² | - |
| 1777677538 | 18.33° C | 58% | 1012.2 hPa | 0 mm | - | 23 W/m² | - |
| 1777677236 | 18.33° C | 59% | 1011.9 hPa | 0 mm | - | 29 W/m² | - |
| 1777676934 | 18.89° C | 58% | 1011.9 hPa | 0 mm | - | 32 W/m² | - |
| 1777676633 | 18.89° C | 57% | 1012.2 hPa | 0 mm | - | 40 W/m² | - |
| 1777676330 | 18.89° C | 57% | 1011.8 hPa | 0 mm | - | 41 W/m² | - |
| 1777676028 | 18.89° C | 57% | 1011.6 hPa | 0 mm | - | 42 W/m² | - |
| 1777675723 | 18.89° C | 56% | 1011.4 hPa | 0 mm | - | 49 W/m² | - |
| 1777675421 | 18.89° C | 57% | 1011.5 hPa | 0 mm | - | 52 W/m² | - |
| 1777675117 | 18.89° C | 56% | 1011.5 hPa | 0 mm | - | 58 W/m² | - |
| 1777674813 | 18.89° C | 52% | 1011.5 hPa | 0 mm | - | 56 W/m² | - |
| 1777674510 | 18.89° C | 52% | 1011.5 hPa | 0 mm | - | 55 W/m² | - |
| 1777674208 | 19.44° C | 53% | 1011.4 hPa | 0 mm | - | 50 W/m² | - |
| 1777673904 | 19.44° C | 52% | 1011.3 hPa | 0 mm | - | 51 W/m² | - |
| 1777673600 | 19.44° C | 52% | 1011.3 hPa | 0 mm | - | 54 W/m² | - |
| 1777673299 | 19.44° C | 51% | 1011.2 hPa | 0 mm | - | 81 W/m² | - |
| 1777672995 | 20° C | 50% | 1011.4 hPa | 0 mm | - | 82 W/m² | - |
| 1777672692 | 20.56° C | 57% | 1011.4 hPa | 0 mm | - | 118 W/m² | - |
| 1777672388 | 20° C | 51% | 1011.5 hPa | 0 mm | - | 92 W/m² | - |
* Rain latest hour (hover to see other rain measurements)
** Current wind speed in m/s (hover to see current wind gust speed)